createdAt,value
2018-10-07T00:01:41.257Z,95941.67
2018-10-07T00:04:10.627Z,95948.86
2018-10-07T00:06:40.940Z,95943.52
2018-10-07T00:09:10.439Z,95947.73
2018-10-07T00:11:39.733Z,95946.00
2018-10-07T00:14:09.288Z,95946.45
2018-10-07T00:16:39.891Z,95944.92
2018-10-07T00:19:08.655Z,95952.99
2018-10-07T00:21:38.771Z,95958.59
2018-10-07T00:24:09.306Z,95956.56
2018-10-07T00:26:42.364Z,95963.48
2018-10-07T00:29:11.912Z,95959.41
2018-10-07T00:31:47.084Z,95964.25
2018-10-07T00:34:18.064Z,95963.05
2018-10-07T00:36:46.885Z,95961.53
2018-10-07T00:39:16.944Z,95970.80
2018-10-07T00:41:47.312Z,95962.15
2018-10-07T00:44:17.066Z,95966.70
2018-10-07T00:46:47.825Z,95962.89
2018-10-07T00:49:18.076Z,95967.55
2018-10-07T00:51:47.458Z,95966.11
2018-10-07T00:54:16.201Z,95965.84
2018-10-07T00:56:45.809Z,95968.84
2018-10-07T00:59:14.622Z,95969.97
2018-10-07T01:01:43.382Z,95975.14
2018-10-07T01:04:13.507Z,95970.93
2018-10-07T01:06:42.942Z,95962.46
2018-10-07T01:09:14.631Z,95970.72
2018-10-07T01:11:44.486Z,95970.08
2018-10-07T01:14:13.792Z,95968.59
2018-10-07T01:16:44.883Z,95968.13
2018-10-07T01:19:15.179Z,95972.75
2018-10-07T01:21:45.859Z,95968.94
2018-10-07T01:24:16.776Z,95974.73
2018-10-07T01:26:46.315Z,95969.95
2018-10-07T01:29:15.144Z,95977.22
2018-10-07T01:31:44.663Z,95972.59
2018-10-07T01:34:14.210Z,95975.70
2018-10-07T01:36:43.105Z,95977.53
2018-10-07T01:39:13.118Z,95972.81
2018-10-07T01:41:42.458Z,95976.58
2018-10-07T01:44:12.324Z,95975.36
2018-10-07T01:46:42.057Z,95977.16
2018-10-07T01:49:10.528Z,95980.20
2018-10-07T01:51:41.016Z,95976.83
2018-10-07T01:54:11.927Z,95971.33
2018-10-07T01:56:41.119Z,95969.78
2018-10-07T01:59:10.810Z,95975.50
2018-10-07T02:01:39.601Z,95978.05
2018-10-07T02:04:11.282Z,95978.69
2018-10-07T02:06:40.743Z,95976.02
2018-10-07T02:09:12.139Z,95980.45
2018-10-07T02:11:43.247Z,95981.41
2018-10-07T02:14:12.794Z,95982.38
2018-10-07T02:16:42.743Z,95985.55
2018-10-07T02:19:12.268Z,95986.88
2018-10-07T02:21:41.713Z,95988.30
2018-10-07T02:24:11.781Z,95993.03
2018-10-07T02:26:42.474Z,95998.16
2018-10-07T02:29:11.787Z,95996.52
2018-10-07T02:31:40.558Z,95991.42
2018-10-07T02:34:11.578Z,96000.77
2018-10-07T02:36:40.621Z,95997.19
2018-10-07T02:39:12.584Z,95995.73
2018-10-07T02:41:42.611Z,96003.45
2018-10-07T02:44:11.852Z,95997.11
2018-10-07T02:46:43.727Z,95997.70
2018-10-07T02:49:14.390Z,95998.52
2018-10-07T02:51:43.538Z,96001.41
2018-10-07T02:54:14.598Z,96007.87
2018-10-07T02:56:43.951Z,96011.02
2018-10-07T02:59:15.683Z,96004.25
2018-10-07T03:01:45.591Z,96014.66
2018-10-07T03:04:14.597Z,96013.06
2018-10-07T03:06:43.893Z,96017.45
2018-10-07T03:09:18.775Z,96019.73
2018-10-07T03:11:48.259Z,96018.41
2018-10-07T03:14:18.158Z,96020.24
2018-10-07T03:16:47.741Z,96025.33
2018-10-07T03:19:18.533Z,96024.34
2018-10-07T03:21:49.539Z,96030.86
2018-10-07T03:24:18.279Z,96027.36
2018-10-07T03:26:51.888Z,96027.00
2018-10-07T03:29:21.352Z,96032.38
2018-10-07T03:31:51.824Z,96029.56
2018-10-07T03:34:22.802Z,96042.80
2018-10-07T03:36:53.484Z,96043.23
2018-10-07T03:39:23.221Z,96046.48
2018-10-07T03:41:52.013Z,96052.34
2018-10-07T03:44:25.672Z,96050.91
2018-10-07T03:46:55.356Z,96051.81
2018-10-07T03:49:25.199Z,96057.34
2018-10-07T03:51:56.999Z,96060.20
2018-10-07T03:54:28.013Z,96057.73
2018-10-07T03:56:58.146Z,96060.81
2018-10-07T03:59:26.951Z,96063.92
2018-10-07T04:01:56.999Z,96068.69
2018-10-07T04:04:26.340Z,96067.01
2018-10-07T04:06:56.602Z,96069.32
2018-10-07T04:09:26.940Z,96075.08
2018-10-07T04:11:57.039Z,96063.41
2018-10-07T04:14:26.312Z,96067.26
2018-10-07T04:16:55.065Z,96070.70
2018-10-07T04:19:24.108Z,96063.66
2018-10-07T04:21:55.209Z,96073.34
2018-10-07T04:24:27.013Z,96074.56
2018-10-07T04:26:56.310Z,96074.59
2018-10-07T04:29:27.219Z,96078.56
2018-10-07T04:31:56.749Z,96071.59
2018-10-07T04:34:25.244Z,96068.59
2018-10-07T04:36:56.275Z,96060.01
2018-10-07T04:39:26.828Z,96069.17
2018-10-07T04:42:01.515Z,96064.30
2018-10-07T04:44:31.129Z,96064.80
2018-10-07T04:47:00.667Z,96063.79
2018-10-07T04:49:29.160Z,96066.86
2018-10-07T04:51:57.880Z,96063.13
2018-10-07T04:54:28.373Z,96066.23
2018-10-07T04:56:58.521Z,96075.53
2018-10-07T04:59:28.427Z,95663.80
2018-10-07T05:01:59.483Z,96077.25
2018-10-07T05:04:28.670Z,96082.18
2018-10-07T05:07:13.127Z,96083.65
2018-10-07T05:09:41.686Z,95701.16
2018-10-07T05:12:11.914Z,96087.02
2018-10-07T05:14:43.564Z,96092.97
2018-10-07T05:17:16.440Z,96088.89
2018-10-07T05:19:45.557Z,96089.19
2018-10-07T05:22:15.601Z,96085.84
2018-10-07T05:24:45.647Z,96100.77
2018-10-07T05:27:17.103Z,96102.67
2018-10-07T05:29:45.828Z,96110.77
2018-10-07T05:32:14.575Z,96112.47
2018-10-07T05:34:44.296Z,96113.41
2018-10-07T05:37:13.501Z,96126.80
2018-10-07T05:39:44.351Z,96121.27
2018-10-07T05:42:12.993Z,96128.47
2018-10-07T05:44:42.372Z,96133.34
2018-10-07T05:47:15.103Z,96141.19
2018-10-07T05:49:45.284Z,96140.89
2018-10-07T05:52:16.683Z,96151.80
2018-10-07T05:54:45.232Z,96150.50
2018-10-07T05:57:16.841Z,96154.41
2018-10-07T05:59:46.471Z,96162.61
2018-10-07T06:02:15.956Z,96162.20
2018-10-07T06:04:49.998Z,96161.83
2018-10-07T06:07:19.657Z,96168.11
2018-10-07T06:09:49.763Z,96177.17
2018-10-07T06:12:19.132Z,96176.17
2018-10-07T06:14:58.888Z,96176.22
2018-10-07T06:17:28.445Z,96177.13
2018-10-07T06:19:57.315Z,96184.00
2018-10-07T06:22:26.960Z,96185.58
2018-10-07T06:24:58.040Z,96188.02
2018-10-07T06:27:27.238Z,96191.02
2018-10-07T06:29:58.281Z,96196.05
2018-10-07T06:32:27.042Z,96193.09
2018-10-07T06:34:56.805Z,96202.11
2018-10-07T06:37:26.408Z,96200.70
2018-10-07T06:39:55.557Z,96198.06
2018-10-07T06:42:26.853Z,96200.23
2018-10-07T06:44:56.536Z,96199.61
2018-10-07T06:47:27.655Z,96202.67
2018-10-07T06:49:58.471Z,96205.73
2018-10-07T06:52:30.599Z,96207.45
2018-10-07T06:54:59.726Z,96210.97
2018-10-07T06:57:31.752Z,96215.30
2018-10-07T07:00:04.923Z,96213.55
2018-10-07T07:02:35.553Z,96210.63
2018-10-07T07:05:04.484Z,96210.05
2018-10-07T07:07:33.507Z,96213.16
2018-10-07T07:10:04.100Z,96219.34
2018-10-07T07:12:36.239Z,96226.78
2018-10-07T07:15:06.238Z,96224.31
2018-10-07T07:17:35.895Z,96230.48
2018-10-07T07:20:05.524Z,96234.23
2018-10-07T07:22:34.311Z,96247.30
2018-10-07T07:25:04.093Z,96244.09
2018-10-07T07:27:34.135Z,96248.02
2018-10-07T07:30:03.943Z,96252.58
2018-10-07T07:32:32.703Z,96255.11
2018-10-07T07:35:02.655Z,96262.59
2018-10-07T07:37:32.606Z,96265.35
2018-10-07T07:40:03.710Z,96275.44
2018-10-07T07:42:33.097Z,96274.22
2018-10-07T07:45:02.836Z,96282.25
2018-10-07T07:47:35.180Z,96284.55
2018-10-07T07:50:05.558Z,96287.88
2018-10-07T07:52:35.273Z,96296.48
2018-10-07T07:55:04.627Z,96303.79
2018-10-07T07:57:34.168Z,96307.87
2018-10-07T08:00:04.373Z,96307.42
2018-10-07T08:02:33.731Z,96308.84
2018-10-07T08:05:02.863Z,96307.92
2018-10-07T08:07:31.469Z,96304.14
2018-10-07T08:10:01.673Z,96301.46
2018-10-07T08:12:30.628Z,96297.80
2018-10-07T08:15:01.023Z,96300.98
2018-10-07T08:17:30.700Z,96294.81
2018-10-07T08:19:59.856Z,96296.80
2018-10-07T08:22:28.802Z,96300.23
2018-10-07T08:24:58.493Z,96298.41
2018-10-07T08:27:27.359Z,96308.33
2018-10-07T08:29:56.389Z,96303.02
2018-10-07T08:32:25.950Z,96311.03
2018-10-07T08:34:56.013Z,96310.45
2018-10-07T08:37:25.611Z,96313.67
2018-10-07T08:40:01.007Z,96313.09
2018-10-07T08:42:30.159Z,96312.69
2018-10-07T08:45:00.245Z,96313.09
2018-10-07T08:47:28.966Z,96317.85
2018-10-07T08:49:59.535Z,96321.25
2018-10-07T08:52:28.592Z,96318.31
2018-10-07T08:54:57.940Z,96327.57
2018-10-07T08:57:27.553Z,96328.57
2018-10-07T08:59:57.128Z,96334.15
2018-10-07T09:02:26.240Z,96338.72
2018-10-07T09:04:57.421Z,96347.88
2018-10-07T09:07:26.839Z,96349.08
2018-10-07T09:09:57.165Z,96354.32
2018-10-07T09:12:27.060Z,96346.11
2018-10-07T09:14:56.815Z,96352.61
2018-10-07T09:17:26.604Z,96353.52
2018-10-07T09:19:55.590Z,96363.27
2018-10-07T09:22:25.325Z,96368.37
2018-10-07T09:25:25.578Z,96366.02
2018-10-07T09:27:56.544Z,96368.35
2018-10-07T09:30:27.611Z,96368.68
2018-10-07T09:32:57.077Z,96366.08
2018-10-07T09:35:32.769Z,96384.92
2018-10-07T09:38:04.575Z,96358.07
2018-10-07T09:40:33.653Z,96365.87
2018-10-07T09:43:04.440Z,96363.27
2018-10-07T09:45:35.668Z,96374.31
2018-10-07T09:48:09.392Z,96376.77
2018-10-07T09:50:39.745Z,96381.28
2018-10-07T09:53:08.930Z,96377.83
2018-10-07T09:55:39.476Z,96379.33
2018-10-07T09:58:09.225Z,96381.32
2018-10-07T10:00:41.172Z,96391.13
2018-10-07T10:03:12.146Z,96386.93
2018-10-07T10:05:43.347Z,96389.80
2018-10-07T10:08:13.003Z,96388.55
2018-10-07T10:10:43.195Z,96382.42
2018-10-07T10:13:13.574Z,96385.66
2018-10-07T10:15:44.175Z,96383.69
2018-10-07T10:18:18.027Z,96382.69
2018-10-07T10:20:55.600Z,96390.20
2018-10-07T10:25:34.157Z,96391.29
2018-10-07T10:28:09.871Z,96400.87
2018-10-07T10:30:47.040Z,96395.75
2018-10-07T10:33:34.089Z,96398.44
2018-10-07T10:36:39.235Z,96395.92
2018-10-07T10:39:21.556Z,96393.63
2018-10-07T10:42:09.830Z,96400.59
2018-10-07T10:44:49.628Z,96396.73
2018-10-07T10:47:36.760Z,96392.61
2018-10-07T10:50:44.463Z,96397.33
2018-10-07T10:53:35.440Z,96394.50
2018-10-07T10:56:46.607Z,96396.37
2018-10-07T10:59:24.079Z,96392.05
2018-10-07T11:02:02.066Z,96396.23
2018-10-07T11:04:38.645Z,96390.62
2018-10-07T11:07:19.715Z,96385.02
2018-10-07T11:10:05.012Z,96386.38
2018-10-07T11:15:48.838Z,96385.38
2018-10-07T11:19:32.298Z,96389.31
2018-10-07T11:24:16.787Z,96387.44
2018-10-07T11:27:58.176Z,96394.20
2018-10-07T11:30:39.340Z,96386.84
2018-10-07T11:34:02.835Z,96394.19
2018-10-07T11:38:53.196Z,96383.30
2018-10-07T11:41:32.709Z,96386.59
2018-10-07T11:45:09.827Z,96385.88
2018-10-07T11:48:52.826Z,96389.69
2018-10-07T11:51:32.292Z,96390.61
2018-10-07T11:54:05.343Z,96392.30
2018-10-07T11:56:35.020Z,96398.93
2018-10-07T11:59:04.506Z,96394.59
2018-10-07T12:01:34.207Z,96389.45
2018-10-07T12:04:06.038Z,96396.23
2018-10-07T12:06:36.367Z,96400.37
2018-10-07T12:09:06.759Z,96395.55
2018-10-07T12:11:37.317Z,96399.31
2018-10-07T12:14:05.781Z,96398.23
2018-10-07T12:16:34.386Z,96402.09
2018-10-07T12:19:04.681Z,96399.30
2018-10-07T12:21:34.520Z,96406.47
2018-10-07T12:24:04.548Z,96407.48
2018-10-07T12:26:34.767Z,96414.91
2018-10-07T12:29:04.082Z,96407.27
2018-10-07T12:31:35.447Z,96416.16
2018-10-07T12:34:03.947Z,96413.63
2018-10-07T12:36:32.966Z,96409.06
2018-10-07T12:39:04.357Z,96405.30
2018-10-07T12:41:33.491Z,96416.89
2018-10-07T12:44:04.104Z,96413.52
2018-10-07T12:46:33.163Z,96077.95
2018-10-07T12:49:03.192Z,96416.31
2018-10-07T12:51:33.903Z,96415.84
2018-10-07T12:54:03.336Z,96420.32
2018-10-07T12:56:32.233Z,96426.41
2018-10-07T12:59:03.031Z,96424.96
2018-10-07T13:01:33.403Z,96430.02
2018-10-07T13:04:03.520Z,96424.36
2018-10-07T13:06:34.934Z,96428.91
2018-10-07T13:09:05.779Z,96430.34
2018-10-07T13:11:34.859Z,96420.85
2018-10-07T13:14:05.005Z,96429.19
2018-10-07T13:16:33.915Z,96427.61
2018-10-07T13:19:03.473Z,96432.61
2018-10-07T13:21:33.537Z,96434.92
2018-10-07T13:24:04.228Z,96446.49
2018-10-07T13:26:36.717Z,96439.95
2018-10-07T13:29:05.829Z,96438.01
2018-10-07T13:31:34.634Z,96441.09
2018-10-07T13:34:03.250Z,96443.28
2018-10-07T13:36:34.276Z,96441.38
2018-10-07T13:39:04.499Z,96436.13
2018-10-07T13:41:33.915Z,96437.98
2018-10-07T13:44:04.490Z,96439.68
2018-10-07T13:46:33.665Z,96446.24
2018-10-07T13:49:07.591Z,96446.91
2018-10-07T13:51:37.396Z,96447.55
2018-10-07T13:54:07.401Z,96447.45
2018-10-07T13:56:36.922Z,96439.84
2018-10-07T13:59:05.747Z,96440.91
2018-10-07T14:01:35.649Z,96438.38
2018-10-07T14:04:05.085Z,95085.59
2018-10-07T14:06:34.464Z,96441.82
2018-10-07T14:09:05.008Z,96448.86
2018-10-07T14:11:35.199Z,96448.83
2018-10-07T14:14:05.082Z,96448.27
2018-10-07T14:16:35.301Z,96445.00
2018-10-07T14:19:06.291Z,96442.67
2018-10-07T14:21:37.472Z,96438.98
2018-10-07T14:24:06.379Z,96450.80
2018-10-07T14:26:36.401Z,96449.55
2018-10-07T14:29:06.657Z,96449.50
2018-10-07T14:31:36.266Z,96451.80
2018-10-07T14:34:05.120Z,96452.45
2018-10-07T14:36:35.241Z,96453.48
2018-10-07T14:39:05.010Z,96454.19
2018-10-07T14:41:36.009Z,96454.17
2018-10-07T14:44:05.143Z,96457.58
2018-10-07T14:46:34.244Z,96453.16
2018-10-07T14:49:05.243Z,96448.28
2018-10-07T14:51:34.182Z,96453.18
2018-10-07T14:54:04.660Z,96447.52
2018-10-07T14:56:34.175Z,96451.67
2018-10-07T14:59:04.544Z,96457.98
2018-10-07T15:01:35.077Z,96458.90
2018-10-07T15:04:04.544Z,96458.56
2018-10-07T15:06:35.995Z,96463.72
2018-10-07T15:09:06.590Z,96459.97
2018-10-07T15:11:35.692Z,96465.41
2018-10-07T15:14:04.247Z,96468.88
2018-10-07T15:16:34.243Z,96465.77
2018-10-07T15:19:05.008Z,96463.33
2018-10-07T15:21:34.882Z,96457.63
2018-10-07T15:24:05.370Z,96459.42
2018-10-07T15:26:34.392Z,96466.57
2018-10-07T15:29:04.107Z,96464.55
2018-10-07T15:31:33.040Z,96464.97
2018-10-07T15:34:05.875Z,96465.71
2018-10-07T15:36:35.796Z,96465.08
2018-10-07T15:39:07.363Z,96466.41
2018-10-07T15:41:37.413Z,96468.41
2018-10-07T15:44:07.553Z,96478.92
2018-10-07T15:46:36.913Z,96480.84
2018-10-07T15:49:06.214Z,96482.11
2018-10-07T15:51:36.640Z,96482.23
2018-10-07T15:54:06.106Z,96479.66
2018-10-07T15:56:35.832Z,96481.48
2018-10-07T15:59:06.742Z,96494.81
2018-10-07T16:01:37.853Z,96498.80
2018-10-07T16:04:10.182Z,96493.88
2018-10-07T16:06:40.003Z,96490.84
2018-10-07T16:09:09.998Z,96499.97
2018-10-07T16:11:40.904Z,96500.45
2018-10-07T16:14:11.690Z,96497.54
2018-10-07T16:16:41.567Z,96507.52
2018-10-07T16:19:11.247Z,96510.41
2018-10-07T16:21:42.514Z,96512.36
2018-10-07T16:25:38.352Z,96516.59
2018-10-07T16:28:08.906Z,96517.52
2018-10-07T16:30:37.676Z,96519.67
2018-10-07T16:33:08.648Z,96518.88
2018-10-07T16:35:38.440Z,96520.42
2018-10-07T16:38:08.155Z,95224.05
2018-10-07T16:40:38.203Z,96523.37
2018-10-07T16:43:08.888Z,96521.34
2018-10-07T16:45:38.810Z,96526.72
2018-10-07T16:48:09.681Z,96532.78
2018-10-07T16:50:39.934Z,96536.16
2018-10-07T16:53:09.627Z,96531.56
2018-10-07T16:55:39.534Z,96539.09
2018-10-07T16:58:08.685Z,96541.53
2018-10-07T17:00:38.199Z,96546.17
2018-10-07T17:03:08.816Z,96544.52
2018-10-07T17:05:38.257Z,96553.19
2018-10-07T17:08:08.482Z,96548.80
2018-10-07T17:10:37.930Z,96553.27
2018-10-07T17:13:06.823Z,96553.78
2018-10-07T17:15:37.338Z,96544.07
2018-10-07T17:18:07.711Z,96555.02
2018-10-07T17:20:39.130Z,96560.48
2018-10-07T17:23:07.985Z,96560.06
2018-10-07T17:25:40.889Z,96569.56
2018-10-07T17:28:10.613Z,96570.66
2018-10-07T17:30:40.116Z,96573.75
2018-10-07T17:33:10.196Z,96578.52
2018-10-07T17:35:43.225Z,96584.50
2018-10-07T17:38:14.789Z,96584.75
2018-10-07T17:40:45.399Z,96590.59
2018-10-07T17:43:18.440Z,96603.81
2018-10-07T17:45:48.295Z,96600.97
2018-10-07T17:48:20.062Z,96604.50
2018-10-07T17:50:50.001Z,96604.27
2018-10-07T17:53:19.637Z,96609.39
2018-10-07T17:55:50.031Z,96612.27
2018-10-07T17:58:19.830Z,96612.75
2018-10-07T18:00:51.264Z,96625.53
2018-10-07T18:03:23.857Z,96630.53
2018-10-07T18:06:05.083Z,96631.45
2018-10-07T18:08:34.850Z,96637.89
2018-10-07T18:11:03.980Z,96635.23
2018-10-07T18:13:33.137Z,96639.05
2018-10-07T18:16:06.031Z,96644.52
2018-10-07T18:18:36.348Z,96638.05
2018-10-07T18:21:06.436Z,96644.52
2018-10-07T18:23:36.773Z,96649.36
2018-10-07T18:26:06.371Z,96650.47
2018-10-07T18:28:37.131Z,96657.41
2018-10-07T18:31:06.556Z,96663.25
2018-10-07T18:33:37.464Z,96690.12
2018-10-07T18:36:06.776Z,96669.42
2018-10-07T18:38:36.152Z,96670.09
2018-10-07T18:41:05.822Z,96672.36
2018-10-07T18:43:35.489Z,96675.36
2018-10-07T18:46:04.165Z,96678.11
2018-10-07T18:48:34.443Z,96678.20
2018-10-07T18:51:04.470Z,96676.70
2018-10-07T18:53:33.221Z,96685.41
2018-10-07T18:56:03.507Z,96683.12
2018-10-07T18:58:32.049Z,96686.52
2018-10-07T19:01:03.272Z,96692.73
2018-10-07T19:03:34.184Z,96698.47
2018-10-07T19:06:06.068Z,96693.43
2018-10-07T19:08:35.097Z,96698.80
2018-10-07T19:11:04.340Z,96703.45
2018-10-07T19:13:35.075Z,96705.27
2018-10-07T19:16:05.596Z,96714.19
2018-10-07T19:18:36.149Z,96715.97
2018-10-07T19:21:06.684Z,96720.64
2018-10-07T19:23:38.670Z,96725.86
2018-10-07T19:26:10.318Z,96723.77
2018-10-07T19:28:39.742Z,96724.20
2018-10-07T19:31:16.524Z,96722.84
2018-10-07T19:33:47.781Z,96732.73
2018-10-07T19:36:17.993Z,96739.73
2018-10-07T19:38:47.270Z,96743.12
2018-10-07T19:41:17.630Z,96739.94
2018-10-07T19:43:46.174Z,96744.90
2018-10-07T19:46:15.529Z,96750.61
2018-10-07T19:48:44.965Z,96757.46
2018-10-07T19:51:15.166Z,96762.61
2018-10-07T19:53:46.229Z,96754.11
2018-10-07T19:56:15.662Z,96752.98
2018-10-07T19:58:47.174Z,96751.34
2018-10-07T20:01:17.766Z,96749.30
2018-10-07T20:03:46.905Z,96755.91
2018-10-07T20:06:17.731Z,96760.89
2018-10-07T20:08:49.238Z,96764.16
2018-10-07T20:11:19.089Z,96771.86
2018-10-07T20:13:48.655Z,96771.90
2018-10-07T20:16:18.072Z,96774.89
2018-10-07T20:18:49.584Z,96773.38
2018-10-07T20:21:20.056Z,96770.23
2018-10-07T20:23:50.165Z,96771.50
2018-10-07T20:26:20.520Z,96769.45
2018-10-07T20:28:49.899Z,96772.52
2018-10-07T20:31:20.168Z,96770.92
2018-10-07T20:33:52.591Z,95520.27
2018-10-07T20:36:22.499Z,96779.83
2018-10-07T20:38:51.869Z,96777.85
2018-10-07T20:41:20.789Z,96777.73
2018-10-07T20:43:51.233Z,96784.92
2018-10-07T20:46:21.902Z,96781.80
2018-10-07T20:48:51.728Z,96781.91
2018-10-07T20:51:21.577Z,96785.45
2018-10-07T20:53:50.813Z,96783.95
2018-10-07T20:56:21.834Z,96785.45
2018-10-07T20:58:52.964Z,96783.45
2018-10-07T21:01:24.049Z,96789.47
2018-10-07T21:03:54.624Z,96785.91
2018-10-07T21:06:25.233Z,96787.45
2018-10-07T21:08:55.246Z,96789.52
2018-10-07T21:11:24.299Z,96794.43
2018-10-07T21:13:55.145Z,96794.50
2018-10-07T21:16:23.959Z,96787.95
2018-10-07T21:18:52.802Z,96789.31
2018-10-07T21:21:22.830Z,96715.39
2018-10-07T21:23:52.802Z,96796.81
2018-10-07T21:26:22.440Z,96801.60
2018-10-07T21:28:52.908Z,96800.83
2018-10-07T21:31:23.604Z,96801.83
2018-10-07T21:33:56.940Z,96814.66
2018-10-07T21:36:25.707Z,96805.55
2018-10-07T21:38:54.192Z,96808.80
2018-10-07T21:41:23.804Z,96799.99
2018-10-07T21:43:53.423Z,96803.83
2018-10-07T21:46:24.811Z,96808.98
2018-10-07T21:48:54.977Z,96802.88
2018-10-07T21:51:24.505Z,96802.23
2018-10-07T21:53:54.544Z,96799.93
2018-10-07T21:56:24.472Z,96796.28
2018-10-07T21:58:54.423Z,96839.97
2018-10-07T22:01:24.096Z,96797.13
2018-10-07T22:03:52.743Z,96802.45
2018-10-07T22:06:23.203Z,96795.67
2018-10-07T22:08:52.935Z,96798.70
2018-10-07T22:11:21.977Z,96788.35
2018-10-07T22:13:52.103Z,96779.21
2018-10-07T22:16:21.740Z,96779.24
2018-10-07T22:18:50.708Z,95311.13
2018-10-07T22:21:21.239Z,96779.78
2018-10-07T22:23:50.170Z,96775.93
2018-10-07T22:26:20.240Z,96776.63
2018-10-07T22:28:50.977Z,96786.06
2018-10-07T22:31:20.404Z,96781.73
2018-10-07T22:33:49.856Z,96787.19
2018-10-07T22:36:18.863Z,96784.41
2018-10-07T22:38:48.604Z,96788.49
2018-10-07T22:41:19.736Z,96777.42
2018-10-07T22:43:50.561Z,96782.80
2018-10-07T22:46:21.580Z,96786.70
2018-10-07T22:48:52.220Z,96788.52
2018-10-07T22:51:20.953Z,96792.66
2018-10-07T22:53:51.751Z,96791.73
2018-10-07T22:56:22.799Z,96795.14
2018-10-07T22:58:52.400Z,96795.41
2018-10-07T23:01:21.704Z,96799.87
2018-10-07T23:03:51.624Z,96801.00
2018-10-07T23:06:21.310Z,96807.81
2018-10-07T23:08:50.401Z,96804.81
2018-10-07T23:11:19.320Z,96799.47
2018-10-07T23:13:48.470Z,96803.45
2018-10-07T23:16:18.388Z,96791.19
2018-10-07T23:18:49.481Z,96793.62
2018-10-07T23:21:18.415Z,96794.59
2018-10-07T23:23:49.488Z,96799.72
2018-10-07T23:26:19.550Z,96793.86
2018-10-07T23:28:49.597Z,96789.47
2018-10-07T23:31:19.419Z,96790.47
2018-10-07T23:33:49.538Z,96798.69
2018-10-07T23:36:19.551Z,96792.34
2018-10-07T23:38:48.056Z,96795.85
2018-10-07T23:41:17.012Z,96794.53
2018-10-07T23:43:48.085Z,96800.91
2018-10-07T23:46:17.596Z,96846.50
2018-10-07T23:48:48.161Z,96798.48
2018-10-07T23:51:17.710Z,96804.19
2018-10-07T23:53:46.212Z,96806.84
2018-10-07T23:56:16.831Z,96809.61
2018-10-07T23:58:46.853Z,96815.17
